Time;durP1;ratioP1;P1;durP2;ratioP2;P2;SDS_P1;SDS_P2;PMS_P1;PMS_P2;Temp;Humidity;BMP_temperature;BMP_pressure;BME280_temperature;BME280_humidity;BME280_pressure;Samples;Min_cycle;Max_cycle;Signal;HPM_P1;HPM_P2
2023/02/13 00:02:17;;;;;;;10.02;6.75;;;;;;;18.79;42.23;103621.38;5001159;28;20076;-74
2023/02/13 00:04:42;;;;;;;9.40;6.60;;;;;;;18.81;42.12;103629.22;4995774;28;20226;-76
2023/02/13 00:07:10;;;;;;;10.93;7.03;;;;;;;18.78;42.12;103617.00;4994626;28;20041;-75
2023/02/13 00:09:36;;;;;;;10.38;7.15;;;;;;;18.77;41.91;103614.41;4994719;28;20030;-76
2023/02/13 00:12:01;;;;;;;9.07;6.70;;;;;;;18.78;42.00;103624.06;4995401;28;20041;-75
2023/02/13 00:14:27;;;;;;;10.90;7.78;;;;;;;18.77;41.99;103617.06;4993768;28;20058;-75
2023/02/13 00:16:52;;;;;;;9.40;7.60;;;;;;;18.74;41.99;103612.78;4994010;28;20157;-75
2023/02/13 00:19:17;;;;;;;10.77;7.72;;;;;;;18.71;41.93;103609.38;4993251;28;20070;-74
2023/02/13 00:21:43;;;;;;;10.50;7.35;;;;;;;18.76;41.74;103610.06;4994857;28;20478;-76
2023/02/13 00:24:08;;;;;;;11.60;8.10;;;;;;;18.72;41.89;103604.03;4994157;28;20132;-74
2023/02/13 00:26:34;;;;;;;9.27;7.32;;;;;;;18.72;41.85;103609.31;4994457;28;20054;-74
2023/02/13 00:28:59;;;;;;;9.48;7.07;;;;;;;18.68;41.84;103605.09;4994217;28;20026;-74
2023/02/13 00:31:25;;;;;;;9.38;7.18;;;;;;;18.70;41.79;103607.69;4993924;28;20645;-75
2023/02/13 00:33:51;;;;;;;10.95;7.43;;;;;;;18.65;41.65;103602.56;4993940;28;20037;-74
2023/02/13 00:36:19;;;;;;;11.30;7.70;;;;;;;18.65;41.77;103605.22;4994045;28;20052;-75
2023/02/13 00:38:44;;;;;;;10.57;7.65;;;;;;;18.64;41.72;103598.19;4994722;28;20038;-74
2023/02/13 00:41:10;;;;;;;11.40;7.40;;;;;;;18.64;41.70;103600.84;4993707;28;20271;-74
2023/02/13 00:43:36;;;;;;;9.73;7.47;;;;;;;18.64;41.84;103596.44;4994136;28;20030;-74
2023/02/13 00:46:02;;;;;;;10.98;7.95;;;;;;;18.64;41.63;103603.47;4993844;28;20458;-74
2023/02/13 00:48:29;;;;;;;11.25;8.15;;;;;;;18.64;41.72;103598.19;4993734;28;20471;-74
2023/02/13 00:50:54;;;;;;;10.00;7.57;;;;;;;18.61;41.55;103593.03;4994298;28;20041;-74
2023/02/13 00:53:21;;;;;;;11.18;8.18;;;;;;;18.60;41.54;103591.34;4993170;28;20065;-78
2023/02/13 00:55:47;;;;;;;11.70;7.68;;;;;;;18.63;41.56;103601.78;4993818;28;20474;-76
2023/02/13 00:58:13;;;;;;;9.07;6.88;;;;;;;18.62;41.30;103603.53;4993417;28;20101;-76
2023/02/13 01:00:39;;;;;;;10.80;7.53;;;;;;;18.57;41.18;103594.94;4994207;28;20089;-75
2023/02/13 01:03:05;;;;;;;10.88;7.43;;;;;;;18.60;41.44;103600.13;4992150;28;20033;-75
2023/02/13 01:05:31;;;;;;;11.95;7.50;;;;;;;18.56;41.29;103592.38;4994147;28;20046;-75
2023/02/13 01:07:56;;;;;;;9.88;7.25;;;;;;;18.57;41.18;103600.22;4993351;28;20474;-76
2023/02/13 01:10:23;;;;;;;10.48;7.78;;;;;;;18.58;41.53;103601.09;4993054;28;20386;-76
2023/02/13 01:12:48;;;;;;;10.18;7.60;;;;;;;18.55;41.25;103607.38;4999867;28;20085;-76
2023/02/13 01:15:13;;;;;;;11.32;8.02;;;;;;;18.56;41.15;103597.66;4993482;28;20049;-74
2023/02/13 01:17:39;;;;;;;10.98;7.82;;;;;;;18.56;41.29;103600.28;4993596;28;20491;-75
2023/02/13 01:20:06;;;;;;;11.38;8.35;;;;;;;18.54;41.47;103600.34;4992941;28;20035;-76
2023/02/13 01:22:32;;;;;;;11.68;8.05;;;;;;;18.46;41.27;103581.31;4994108;28;20038;-75
2023/02/13 01:24:57;;;;;;;11.00;8.32;;;;;;;18.52;41.24;103602.22;4993983;28;20034;-73
2023/02/13 01:27:22;;;;;;;10.23;7.32;;;;;;;18.54;41.22;103591.59;4993543;28;20033;-74
2023/02/13 01:29:48;;;;;;;11.57;7.80;;;;;;;18.51;41.12;103581.13;5000088;28;20081;-76
2023/02/13 01:32:13;;;;;;;11.53;7.50;;;;;;;18.45;41.18;103585.75;4999237;28;20037;-74
2023/02/13 01:34:38;;;;;;;10.27;7.30;;;;;;;18.50;41.05;103582.94;4992968;28;20621;-75
2023/02/13 01:37:04;;;;;;;12.10;7.88;;;;;;;18.48;41.11;103587.38;4993443;28;20030;-73
2023/02/13 01:39:29;;;;;;;9.73;7.22;;;;;;;18.50;41.31;103590.84;4995073;28;20101;-74
2023/02/13 01:41:54;;;;;;;10.93;7.75;;;;;;;18.46;41.17;103584.81;4992512;28;20037;-74
2023/02/13 01:44:46;;;;;;;11.23;8.18;;;;;;;18.47;41.05;103586.53;4991074;28;20034;-75
2023/02/13 01:47:13;;;;;;;11.25;7.97;;;;;;;18.43;41.11;103578.78;4990849;28;20034;-74
2023/02/13 01:49:40;;;;;;;10.95;7.93;;;;;;;18.45;40.97;103582.22;4993197;28;20065;-74
2023/02/13 01:52:08;;;;;;;11.30;7.32;;;;;;;18.44;41.05;103570.81;4991959;28;20065;-74
2023/02/13 01:54:35;;;;;;;11.38;8.02;;;;;;;18.41;41.10;103573.56;4990515;28;20363;-75
2023/02/13 01:57:17;;;;;;;10.52;7.53;;;;;;;18.43;40.94;103577.00;4991900;28;20030;-75
2023/02/13 01:59:55;;;;;;;11.73;8.00;;;;;;;18.39;41.00;103577.19;4992018;28;20811;-76
2023/02/13 02:02:21;;;;;;;10.98;8.00;;;;;;;18.41;41.00;103580.66;4993890;28;20037;-74
2023/02/13 02:04:47;;;;;;;10.38;7.75;;;;;;;18.40;40.81;103574.47;4998818;28;20038;-76
2023/02/13 02:07:25;;;;;;;12.88;8.40;;;;;;;18.40;40.84;103577.13;4991799;28;20045;-76
2023/02/13 02:09:52;;;;;;;11.00;7.70;;;;;;;18.39;40.69;103574.53;4993885;28;20077;-76
2023/02/13 02:12:28;;;;;;;9.80;7.40;;;;;;;18.39;40.94;103583.34;4993038;28;20045;-74
2023/02/13 02:14:56;;;;;;;9.50;7.68;;;;;;;18.38;40.88;103580.75;4991666;28;20054;-76
2023/02/13 02:17:23;;;;;;;9.80;7.63;;;;;;;18.39;40.90;103579.81;4998362;28;20047;-75
2023/02/13 02:20:19;;;;;;;9.70;7.20;;;;;;;18.36;40.79;103566.75;4991531;28;20084;-74
2023/02/13 02:23:06;;;;;;;9.82;7.63;;;;;;;18.39;40.76;103575.44;4991459;28;20042;-76
2023/02/13 02:25:55;;;;;;;11.13;7.93;;;;;;;18.38;40.67;103581.63;4991573;28;20034;-76
2023/02/13 02:29:05;;;;;;;9.48;6.93;;;;;;;18.37;40.63;103577.25;4991278;28;20518;-74
2023/02/13 02:31:55;;;;;;;10.05;7.47;;;;;;;18.32;40.38;103566.00;4992249;28;20026;-75
2023/02/13 02:34:29;;;;;;;9.18;7.22;;;;;;;18.31;40.66;103570.44;4992042;28;20038;-74
2023/02/13 02:37:14;;;;;;;10.65;7.32;;;;;;;18.30;40.65;103566.06;4997928;28;20149;-75
2023/02/13 02:40:01;;;;;;;9.25;7.22;;;;;;;18.33;40.43;103574.81;4991466;28;20466;-73
2023/02/13 02:42:49;;;;;;;10.30;7.65;;;;;;;18.31;40.35;103567.81;4997815;28;20471;-78
2023/02/13 02:45:17;;;;;;;9.70;7.00;;;;;;;18.31;40.40;103561.66;4991370;28;20509;-75
2023/02/13 02:50:55;;;;;;;10.13;7.50;;;;;;;18.26;40.40;103567.13;4991836;28;20049;-74
2023/02/13 02:53:53;;;;;;;10.00;7.70;;;;;;;18.20;40.08;103548.88;4991556;28;20033;-74
2023/02/13 02:56:39;;;;;;;10.82;7.57;;;;;;;18.24;40.23;103558.38;4991048;28;20556;-75
2023/02/13 03:07:26;;;;;;;10.93;7.53;;;;;;;18.15;40.32;103545.56;4991692;28;20045;-74
2023/02/13 03:15:33;;;;;;;10.13;7.47;;;;;;;18.22;39.77;103554.09;4991740;28;20517;-75
2023/02/13 03:24:06;;;;;;;10.00;6.95;;;;;;;18.20;39.80;103562.09;4994813;28;20597;-74
2023/02/13 03:26:49;;;;;;;9.30;6.88;;;;;;;18.19;39.92;103559.50;5009524;28;20050;-74
2023/02/13 03:32:37;;;;;;;9.90;7.22;;;;;;;18.15;39.66;103556.13;4994779;28;20037;-76
2023/02/13 03:38:47;;;;;;;9.38;7.35;;;;;;;18.17;39.63;103561.34;4994347;28;20049;-76
2023/02/13 03:41:30;;;;;;;10.23;7.45;;;;;;;18.13;39.67;103556.19;4994163;28;20042;-74
2023/02/13 03:44:08;;;;;;;9.40;7.10;;;;;;;18.13;39.65;103561.47;4994175;28;21169;-74
2023/02/13 03:46:40;;;;;;;11.43;6.93;;;;;;;18.09;39.50;103557.22;4994401;28;20505;-77
2023/02/13 03:52:01;;;;;;;10.13;7.03;;;;;;;18.10;39.38;103565.97;4993962;28;20845;-74
2023/02/13 04:00:21;;;;;;;9.80;7.10;;;;;;;18.10;39.13;103579.16;4994425;28;20096;-75
2023/02/13 04:03:05;;;;;;;8.85;6.90;;;;;;;18.10;39.23;103580.06;4993641;28;20045;-74
2023/02/13 04:05:36;;;;;;;10.20;7.80;;;;;;;18.07;39.06;103574.88;4994313;28;21059;-76
2023/02/13 04:08:01;;;;;;;10.35;7.40;;;;;;;18.08;39.10;103581.88;4993942;28;20052;-74
2023/02/13 04:10:32;;;;;;;9.82;7.20;;;;;;;18.04;39.07;103580.28;4993793;28;20031;-74
2023/02/13 04:13:20;;;;;;;10.48;6.88;;;;;;;18.09;39.21;103580.13;5000569;28;20112;-75
2023/02/13 04:15:52;;;;;;;10.77;6.90;;;;;;;18.03;39.14;103568.00;4993660;28;20274;-78
2023/02/13 04:18:22;;;;;;;8.32;6.43;;;;;;;18.06;39.05;103572.31;4993329;28;20394;-76
2023/02/13 04:20:48;;;;;;;8.50;6.80;;;;;;;18.04;38.98;103568.84;4993493;28;20045;-75
2023/02/13 04:23:14;;;;;;;9.65;6.78;;;;;;;18.04;39.08;103569.72;4992941;28;20026;-75
2023/02/13 04:25:43;;;;;;;8.35;6.25;;;;;;;18.04;38.93;103563.56;4993262;28;20038;-75
2023/02/13 04:28:08;;;;;;;9.15;6.75;;;;;;;18.05;38.83;103565.31;4991877;28;20395;-76
2023/02/13 04:30:33;;;;;;;9.98;6.65;;;;;;;18.03;38.96;103561.88;4999171;28;20030;-75
2023/02/13 04:32:58;;;;;;;8.55;6.03;;;;;;;18.02;38.81;103561.00;4993780;28;20136;-74
2023/02/13 04:35:24;;;;;;;8.73;6.53;;;;;;;18.02;38.80;103561.00;4992317;28;20133;-74
2023/02/13 04:37:49;;;;;;;9.27;6.60;;;;;;;17.98;38.74;103556.75;4992877;28;20037;-75
2023/02/13 04:40:14;;;;;;;10.57;6.78;;;;;;;18.00;38.70;103564.63;4993705;28;20041;-75
2023/02/13 04:42:40;;;;;;;10.15;7.20;;;;;;;18.00;38.80;103556.72;4999521;28;20079;-75
2023/02/13 04:45:05;;;;;;;8.55;6.28;;;;;;;18.00;38.77;103557.56;4993338;28;21232;-76
2023/02/13 04:47:31;;;;;;;10.35;6.80;;;;;;;17.99;38.53;103555.84;4993586;28;20580;-75
2023/02/13 04:49:57;;;;;;;8.48;6.40;;;;;;;17.96;38.45;103553.34;4993212;28;20509;-75
2023/02/13 04:52:22;;;;;;;9.55;6.68;;;;;;;17.99;38.55;103560.25;4999921;28;20041;-74
2023/02/13 04:54:47;;;;;;;8.93;6.30;;;;;;;17.98;38.85;103561.19;4993421;28;20049;-77
2023/02/13 04:57:12;;;;;;;9.53;6.67;;;;;;;17.98;38.78;103559.41;4992913;28;20038;-75
2023/02/13 04:59:38;;;;;;;8.60;6.28;;;;;;;17.94;38.65;103553.38;4992797;28;21191;-75
2023/02/13 05:02:03;;;;;;;10.05;6.47;;;;;;;17.97;38.35;103559.47;4993557;28;20474;-75
2023/02/13 05:04:28;;;;;;;10.57;6.85;;;;;;;17.93;38.55;103549.03;4992796;28;20030;-74
2023/02/13 05:06:54;;;;;;;8.95;6.78;;;;;;;17.94;38.27;103553.38;4991572;28;20041;-75
2023/02/13 05:09:19;;;;;;;9.50;6.88;;;;;;;17.92;38.40;103549.06;4992300;28;20038;-75
2023/02/13 05:11:45;;;;;;;9.30;6.63;;;;;;;17.89;38.42;103544.75;4992435;28;20077;-75
2023/02/13 05:14:10;;;;;;;9.13;6.68;;;;;;;17.88;38.21;103545.69;4992497;28;20059;-73
2023/02/13 05:16:35;;;;;;;8.02;6.22;;;;;;;17.89;38.42;103544.75;4992860;28;20029;-74
2023/02/13 05:19:01;;;;;;;7.53;5.70;;;;;;;17.92;38.30;103549.06;4991711;28;20437;-74
2023/02/13 05:24:10;;;;;;;7.70;5.80;;;;;;;17.89;38.39;103551.81;4992738;28;20041;-74
2023/02/13 05:26:35;;;;;;;8.63;6.07;;;;;;;17.88;38.34;103544.81;4993489;28;20391;-75
2023/02/13 05:29:19;;;;;;;7.53;5.80;;;;;;;17.89;38.40;103551.81;4991346;28;20493;-74
2023/02/13 05:31:45;;;;;;;9.15;6.13;;;;;;;17.87;38.36;103540.44;4992743;28;20041;-74
2023/02/13 05:34:11;;;;;;;8.10;6.10;;;;;;;17.85;38.19;103548.41;4992283;28;20080;-75
2023/02/13 05:36:36;;;;;;;9.20;6.32;;;;;;;17.87;38.13;103551.00;4992297;28;20471;-73
2023/02/13 05:39:02;;;;;;;9.32;6.40;;;;;;;17.87;38.18;103551.84;4991625;28;20045;-75
2023/02/13 05:41:27;;;;;;;10.32;6.35;;;;;;;17.87;37.62;103557.13;4992566;28;20049;-74
2023/02/13 05:43:52;;;;;;;8.37;6.00;;;;;;;17.86;37.74;103557.19;4992221;28;20030;-75
2023/02/13 05:46:18;;;;;;;9.30;6.50;;;;;;;17.82;37.94;103552.97;4992406;28;20678;-75
2023/02/13 05:48:43;;;;;;;9.10;6.40;;;;;;;17.85;37.96;103555.44;4992217;28;20026;-75
2023/02/13 05:51:08;;;;;;;8.10;6.05;;;;;;;17.83;38.04;103563.47;4991955;28;20496;-74
2023/02/13 05:53:34;;;;;;;7.93;5.90;;;;;;;17.82;38.41;103558.22;4992237;28;20030;-75
2023/02/13 05:56:01;;;;;;;6.85;4.70;;;;;;;17.76;38.85;103548.75;4992444;28;20139;-75
2023/02/13 05:58:27;;;;;;;7.38;4.70;;;;;;;17.82;39.21;103556.44;4991974;28;20070;-76
2023/02/13 06:00:56;;;;;;;6.78;4.45;;;;;;;17.84;38.98;103554.59;4991827;28;20072;-75
2023/02/13 06:03:21;;;;;;;6.78;4.45;;;;;;;17.82;38.96;103552.97;4992874;28;20066;-75
2023/02/13 06:05:46;;;;;;;6.47;4.07;;;;;;;17.87;39.02;103549.22;4991811;28;20076;-76
2023/02/13 06:08:11;;;;;;;5.35;3.55;;;;;;;17.92;38.93;103555.19;4990922;28;20034;-76
2023/02/13 06:10:37;;;;;;;5.90;4.18;;;;;;;17.95;39.00;103541.91;4998471;28;20061;-74
2023/02/13 06:13:02;;;;;;;7.60;4.05;;;;;;;18.00;38.59;103554.91;4991444;28;20048;-75
2023/02/13 06:15:28;;;;;;;5.25;3.70;;;;;;;18.04;38.69;103547.72;4992756;28;20474;-75
2023/02/13 06:17:53;;;;;;;6.22;4.63;;;;;;;18.05;38.96;103552.94;4992213;28;20045;-75
2023/02/13 06:20:18;;;;;;;8.35;4.60;;;;;;;18.07;39.13;103545.88;4991526;28;20034;-75
2023/02/13 06:22:47;;;;;;;6.35;4.35;;;;;;;18.08;39.12;103549.34;4992254;28;20042;-74
2023/02/13 06:25:12;;;;;;;5.90;4.05;;;;;;;18.08;39.25;103544.91;4992678;28;20115;-74
2023/02/13 06:27:38;;;;;;;6.28;4.05;;;;;;;18.09;39.38;103546.66;4992120;28;20035;-76
2023/02/13 06:30:03;;;;;;;6.88;4.38;;;;;;;18.12;39.53;103545.69;4991618;28;20097;-74
2023/02/13 06:32:28;;;;;;;6.72;3.90;;;;;;;18.16;39.65;103549.06;4991308;28;20034;-73
2023/02/13 06:34:54;;;;;;;6.40;4.13;;;;;;;18.15;39.89;103550.84;4991476;28;20451;-73
2023/02/13 06:37:19;;;;;;;6.10;3.70;;;;;;;18.18;39.89;103558.63;4990738;28;20264;-74
2023/02/13 06:39:44;;;;;;;6.18;4.00;;;;;;;18.15;39.76;103549.97;4990498;28;20037;-74
2023/02/13 06:42:10;;;;;;;6.93;4.30;;;;;;;18.16;40.12;103551.69;4991296;28;20088;-74
2023/02/13 06:44:35;;;;;;;6.93;4.15;;;;;;;18.18;40.25;103557.78;4990772;28;20933;-73
2023/02/13 06:47:00;;;;;;;7.03;4.43;;;;;;;18.19;39.94;103563.00;4990796;28;20045;-73
2023/02/13 06:49:25;;;;;;;7.53;4.20;;;;;;;18.20;40.11;103563.84;4990730;28;20038;-73
2023/02/13 06:51:51;;;;;;;7.18;4.25;;;;;;;18.20;40.15;103564.72;4989498;28;20318;-74
2023/02/13 06:54:16;;;;;;;7.97;4.23;;;;;;;18.20;40.15;103563.84;4993540;28;20030;-74
2023/02/13 06:56:41;;;;;;;6.57;4.10;;;;;;;18.22;40.21;103559.38;4995095;28;20759;-72
2023/02/13 06:59:06;;;;;;;6.60;4.00;;;;;;;18.24;40.28;103568.09;4994191;28;20272;-73
2023/02/13 07:01:31;;;;;;;8.00;4.40;;;;;;;18.25;40.45;103573.31;5000549;28;20263;-73
2023/02/13 07:03:57;;;;;;;6.60;3.85;;;;;;;18.22;40.43;103564.66;4994128;28;20022;-73
2023/02/13 07:06:22;;;;;;;6.70;3.70;;;;;;;18.25;40.63;103568.03;4995199;28;20030;-73
2023/02/13 07:08:50;;;;;;;6.95;4.43;;;;;;;18.29;40.39;103571.41;4993841;28;20109;-73
2023/02/13 07:11:19;;;;;;;7.20;4.13;;;;;;;18.30;40.55;103571.34;4999860;28;20155;-74
2023/02/13 07:13:45;;;;;;;7.57;4.65;;;;;;;18.26;40.63;103569.78;5000674;28;20097;-74
2023/02/13 07:16:10;;;;;;;7.43;4.63;;;;;;;18.25;40.89;103568.03;4994126;28;20072;-72
2023/02/13 07:18:36;;;;;;;8.27;4.65;;;;;;;18.26;40.96;103575.03;4994080;28;20033;-74
2023/02/13 07:21:02;;;;;;;7.63;4.68;;;;;;;18.27;41.15;103570.63;4994133;28;20083;-75
2023/02/13 07:23:27;;;;;;;7.18;4.25;;;;;;;18.26;41.18;103574.16;4993854;28;20042;-75
2023/02/13 07:25:52;;;;;;;8.05;4.40;;;;;;;18.27;41.48;103565.34;4994185;28;20065;-73
2023/02/13 07:28:18;;;;;;;6.70;4.63;;;;;;;18.27;41.82;103576.75;4994318;28;20928;-74
2023/02/13 07:30:43;;;;;;;6.60;4.45;;;;;;;18.25;41.67;103565.41;4994327;28;20310;-74
2023/02/13 07:33:08;;;;;;;8.25;4.53;;;;;;;18.26;41.91;103569.78;4993956;28;20521;-71
2023/02/13 07:35:36;;;;;;;6.18;4.05;;;;;;;18.26;41.80;103575.03;4994171;28;20084;-73
2023/02/13 07:38:01;;;;;;;6.57;4.05;;;;;;;18.23;41.83;103555.81;4993769;28;20529;-72
2023/02/13 07:40:26;;;;;;;7.57;4.80;;;;;;;18.30;42.20;103567.84;4994281;28;20026;-72
2023/02/13 07:42:52;;;;;;;8.18;4.40;;;;;;;18.33;42.16;103561.63;5000593;28;20034;-73
2023/02/13 07:45:17;;;;;;;7.22;4.20;;;;;;;18.34;42.43;103573.88;4994133;28;20042;-72
2023/02/13 07:47:43;;;;;;;7.45;4.32;;;;;;;18.34;42.33;103577.38;4994256;28;20117;-74
2023/02/13 07:50:09;;;;;;;7.88;5.30;;;;;;;18.38;42.20;103580.75;4994626;28;20402;-71
2023/02/13 07:52:36;;;;;;;8.50;4.47;;;;;;;18.39;42.34;103572.78;4993468;28;20121;-73
2023/02/13 07:55:02;;;;;;;8.65;4.15;;;;;;;18.41;42.82;103573.56;4994185;28;20042;-73
2023/02/13 07:57:27;;;;;;;6.65;4.35;;;;;;;18.42;42.99;103570.03;4994841;28;20402;-74
2023/02/13 07:59:52;;;;;;;6.82;4.35;;;;;;;18.42;42.89;103583.22;4993144;28;20116;-73
2023/02/13 08:02:18;;;;;;;8.50;4.70;;;;;;;18.42;42.87;103582.34;4994189;28;20034;-75
2023/02/13 08:04:46;;;;;;;7.43;4.20;;;;;;;18.43;43.16;103582.28;4993394;28;20361;-75
2023/02/13 08:07:13;;;;;;;9.15;4.88;;;;;;;18.44;43.32;103588.44;4994806;28;20064;-73
2023/02/13 08:12:22;;;;;;;7.95;4.47;;;;;;;18.51;43.30;103589.91;4994889;28;20072;-76
2023/02/13 08:14:47;;;;;;;10.32;5.70;;;;;;;18.53;43.45;103587.22;4995295;28;20058;-73
2023/02/13 08:17:13;;;;;;;8.27;5.00;;;;;;;18.53;43.35;103603.91;4995408;28;20058;-74
2023/02/13 08:19:38;;;;;;;7.78;4.43;;;;;;;18.55;43.47;103596.81;4993906;28;20458;-73
2023/02/13 08:22:04;;;;;;;7.22;4.60;;;;;;;18.58;43.66;103606.38;4995157;28;20494;-74
2023/02/13 08:24:29;;;;;;;6.30;4.43;;;;;;;18.54;43.29;103605.63;4995238;28;20040;-74
2023/02/13 08:26:55;;;;;;;9.05;5.03;;;;;;;18.54;43.64;103607.44;4994845;28;20402;-73
2023/02/13 08:29:20;;;;;;;9.38;4.70;;;;;;;18.56;43.31;103595.84;4993447;28;20506;-72
2023/02/13 08:31:46;;;;;;;9.93;4.82;;;;;;;18.55;43.61;103614.41;4988443;28;20061;-72
2023/02/13 08:34:11;;;;;;;9.25;5.20;;;;;;;18.60;44.09;103615.09;4993044;28;20316;-68
2023/02/13 08:36:36;;;;;;;8.98;5.05;;;;;;;18.59;44.15;103623.94;4992995;28;20034;-67
2023/02/13 08:39:02;;;;;;;6.90;4.60;;;;;;;18.57;44.57;103616.09;4992806;28;20125;-71
2023/02/13 08:41:27;;;;;;;8.55;5.38;;;;;;;18.57;44.60;103618.72;4991740;28;20342;-69
2023/02/13 08:43:53;;;;;;;8.32;4.60;;;;;;;18.57;44.66;103618.72;4992926;28;20033;-69
2023/02/13 08:46:18;;;;;;;8.35;4.72;;;;;;;18.56;44.86;103624.06;4992111;28;20072;-69
2023/02/13 08:48:44;;;;;;;9.85;5.15;;;;;;;18.61;44.81;103622.97;4992748;28;20604;-70
2023/02/13 08:51:11;;;;;;;7.35;4.40;;;;;;;18.59;45.13;103618.66;4992068;28;20390;-73
2023/02/13 08:53:37;;;;;;;7.63;5.00;;;;;;;18.64;44.40;103612.28;4993277;28;20041;-71
2023/02/13 08:56:03;;;;;;;11.68;4.95;;;;;;;18.74;44.59;103623.34;4991941;28;20030;-69
2023/02/13 08:58:28;;;;;;;9.75;5.07;;;;;;;18.80;44.30;103620.47;4992096;28;20085;-72
2023/02/13 09:00:54;;;;;;;8.23;4.78;;;;;;;18.87;44.62;103628.13;4993213;28;20587;-71
2023/02/13 09:03:19;;;;;;;8.15;4.63;;;;;;;18.88;44.48;103622.78;4998962;28;20026;-72
2023/02/13 09:05:46;;;;;;;7.43;4.75;;;;;;;18.88;44.72;103620.16;4991938;28;20060;-73
2023/02/13 09:08:12;;;;;;;8.18;4.40;;;;;;;18.95;44.75;103620.78;4992702;28;20038;-69
2023/02/13 09:10:39;;;;;;;7.13;4.70;;;;;;;18.93;44.59;103615.56;4992741;28;20034;-68
2023/02/13 09:13:04;;;;;;;9.48;4.72;;;;;;;18.99;44.58;103612.66;4991960;28;20157;-72
2023/02/13 09:15:30;;;;;;;8.85;5.65;;;;;;;19.08;44.54;103615.84;4992089;28;20534;-71
2023/02/13 09:17:56;;;;;;;10.65;4.70;;;;;;;19.10;44.46;103614.84;4992770;28;20038;-72
2023/02/13 09:20:22;;;;;;;11.90;4.70;;;;;;;19.14;44.47;103620.88;4998425;28;20048;-70
2023/02/13 09:22:47;;;;;;;8.75;4.70;;;;;;;19.16;44.56;103619.03;4991491;28;20124;-66
2023/02/13 09:25:13;;;;;;;8.75;5.95;;;;;;;19.16;44.71;103606.66;4992001;28;20030;-69
2023/02/13 09:27:38;;;;;;;11.52;4.57;;;;;;;19.23;44.27;103627.56;4991647;28;20077;-69
2023/02/13 09:30:08;;;;;;;8.88;4.82;;;;;;;19.24;44.61;103616.91;4991527;28;20026;-68
2023/02/13 09:32:34;;;;;;;8.45;4.63;;;;;;;19.26;44.49;103614.22;4997589;28;20038;-72
2023/02/13 09:34:59;;;;;;;8.65;4.90;;;;;;;19.21;44.63;103599.38;4991483;28;20034;-72
2023/02/13 09:37:26;;;;;;;8.80;4.85;;;;;;;19.30;44.61;103615.81;4989826;28;20029;-70
2023/02/13 09:39:51;;;;;;;9.45;5.05;;;;;;;19.31;44.39;103614.84;4991373;28;20029;-72
2023/02/13 09:42:23;;;;;;;6.97;4.43;;;;;;;19.32;44.41;103619.25;4991372;28;20042;-71
2023/02/13 09:44:52;;;;;;;7.28;4.90;;;;;;;19.32;44.50;103620.09;4991443;28;20395;-70
2023/02/13 09:47:33;;;;;;;8.10;4.07;;;;;;;19.32;44.57;103613.94;4991862;28;20030;-70
2023/02/13 09:49:58;;;;;;;9.02;4.75;;;;;;;19.35;44.52;103619.97;4990809;28;20046;-72
2023/02/13 09:52:27;;;;;;;9.00;4.77;;;;;;;19.35;44.67;103619.09;4991580;28;20146;-69
2023/02/13 09:54:52;;;;;;;9.35;4.22;;;;;;;19.37;44.76;103622.53;4991354;28;20446;-70
2023/02/13 09:57:38;;;;;;;7.82;4.57;;;;;;;19.34;44.66;103620.03;4991203;28;20053;-71
2023/02/13 10:00:33;;;;;;;10.02;4.63;;;;;;;19.34;44.66;103620.91;4991261;28;20034;-71
2023/02/13 10:02:58;;;;;;;10.57;4.95;;;;;;;19.34;44.38;103620.03;4990418;28;20061;-75
2023/02/13 10:06:02;;;;;;;10.40;4.43;;;;;;;19.30;44.56;103616.66;4991731;28;20069;-71
2023/02/13 10:08:40;;;;;;;9.60;4.82;;;;;;;19.32;44.67;103622.72;4994783;28;20141;-71
2023/02/13 10:11:08;;;;;;;7.35;4.70;;;;;;;19.32;44.70;103630.66;4990526;28;20072;-72
2023/02/13 10:13:42;;;;;;;8.75;5.13;;;;;;;19.26;44.36;103633.56;4990837;28;20061;-72
2023/02/13 10:16:16;;;;;;;;;;;;;;;19.32;44.20;103622.72;4991312;28;20437;-68
2023/02/13 10:18:49;;;;;;;6.97;5.00;;;;;;;19.21;43.62;103628.47;4990348;28;19936;-72
2023/02/13 10:21:20;;;;;;;8.93;4.75;;;;;;;19.00;44.11;103629.38;4997427;28;20082;-67
2023/02/13 10:23:48;;;;;;;6.93;4.40;;;;;;;18.89;44.18;103626.31;4991123;28;20092;-66
2023/02/13 10:26:26;;;;;;;6.95;4.07;;;;;;;18.85;44.34;103622.94;4991648;28;20433;-68
2023/02/13 10:31:50;;;;;;;7.50;4.32;;;;;;;18.79;43.95;103620.53;4991131;28;20084;-69
2023/02/13 10:34:20;;;;;;;7.43;3.95;;;;;;;18.76;43.97;103620.63;4997250;28;20467;-67
2023/02/13 10:36:46;;;;;;;7.05;4.18;;;;;;;18.73;43.84;103618.97;4992218;28;20113;-69
2023/02/13 10:39:29;;;;;;;8.00;4.60;;;;;;;18.71;43.80;103606.72;4991240;28;20045;-70
2023/02/13 10:42:03;;;;;;;8.07;4.55;;;;;;;18.73;43.64;103618.97;4991326;28;20061;-68
2023/02/13 10:44:50;;;;;;;7.60;4.22;;;;;;;18.75;43.50;103618.91;4990188;28;20097;-70
2023/02/13 10:47:50;;;;;;;6.72;3.83;;;;;;;18.79;43.44;103612.59;4989964;28;20168;-72
2023/02/13 10:50:29;;;;;;;6.30;3.97;;;;;;;18.85;43.16;103604.44;4990330;28;20034;-68
2023/02/13 10:53:22;;;;;;;10.48;4.18;;;;;;;19.03;42.88;103608.09;4990478;28;20062;-70
2023/02/13 10:55:56;;;;;;;10.55;4.85;;;;;;;19.12;42.56;103606.84;4990995;28;20073;-64
2023/02/13 10:58:29;;;;;;;11.52;4.60;;;;;;;19.19;42.42;103601.25;4989966;28;20049;-68
2023/02/13 11:01:01;;;;;;;7.70;4.83;;;;;;;19.21;42.23;103587.97;4989961;28;20160;-71
2023/02/13 11:03:29;;;;;;;7.70;4.45;;;;;;;19.25;42.05;103597.50;4990892;28;20042;-68
2023/02/13 11:05:58;;;;;;;7.63;4.95;;;;;;;19.30;41.94;103598.16;4991303;28;20032;-67
2023/02/13 11:08:34;;;;;;;7.18;4.18;;;;;;;19.23;42.02;103595.81;4990682;28;20034;-70
2023/02/13 11:11:00;;;;;;;7.60;3.95;;;;;;;18.99;42.75;103599.47;4988301;28;20061;-72
2023/02/13 11:13:28;;;;;;;6.40;3.70;;;;;;;18.92;42.73;103594.47;4989030;28;20499;-71
2023/02/13 11:16:12;;;;;;;7.28;3.85;;;;;;;18.87;42.98;103591.16;4989575;28;20386;-72
2023/02/13 11:18:42;;;;;;;6.18;3.53;;;;;;;18.78;42.89;103577.38;4989330;28;20386;-72
2023/02/13 11:21:13;;;;;;;7.25;3.97;;;;;;;18.77;42.87;103580.94;4991506;28;20034;-73
2023/02/13 11:23:49;;;;;;;7.18;3.80;;;;;;;18.71;42.79;103569.75;4990755;28;20434;-73
2023/02/13 11:26:24;;;;;;;9.30;3.78;;;;;;;18.70;42.83;103566.25;4990792;28;20130;-71
2023/02/13 11:28:59;;;;;;;5.80;3.47;;;;;;;18.71;42.77;103564.47;4991108;28;20035;-72
2023/02/13 11:31:34;;;;;;;6.30;3.38;;;;;;;18.74;42.55;103572.28;4991860;28;20141;-72
2023/02/13 11:34:21;;;;;;;6.88;3.75;;;;;;;18.74;42.75;103573.16;4991042;28;20052;-72
2023/02/13 11:36:51;;;;;;;6.43;3.90;;;;;;;18.68;42.65;103561.03;4986198;28;20050;-72
2023/02/13 11:39:18;;;;;;;8.00;3.95;;;;;;;18.64;42.72;103559.47;4994834;28;20076;-71
2023/02/13 11:41:46;;;;;;;8.40;4.18;;;;;;;18.64;42.54;103553.28;4994850;28;20117;-72
2023/02/13 11:44:27;;;;;;;5.35;3.47;;;;;;;18.65;42.66;103550.59;4993957;28;20033;-73
2023/02/13 11:46:56;;;;;;;6.22;3.50;;;;;;;18.65;42.75;103550.59;4993464;28;20038;-72
2023/02/13 11:49:26;;;;;;;5.53;3.47;;;;;;;18.69;42.49;103551.31;4993948;28;20167;-72
2023/02/13 11:51:55;;;;;;;6.35;3.88;;;;;;;18.65;42.51;103552.38;4993196;28;20217;-71
2023/02/13 11:54:42;;;;;;;6.30;3.53;;;;;;;18.70;42.43;103554.84;4993752;28;20045;-68
2023/02/13 11:57:19;;;;;;;6.93;3.38;;;;;;;18.68;42.43;103553.09;4993794;28;20084;-69
2023/02/13 11:59:47;;;;;;;6.80;4.13;;;;;;;18.65;42.17;103549.75;4994361;28;20689;-72
2023/02/13 12:02:22;;;;;;;6.32;3.85;;;;;;;18.65;42.31;103553.22;4993876;28;20045;-74
2023/02/13 12:04:53;;;;;;;6.93;3.72;;;;;;;18.63;42.15;103538.38;4994541;28;20521;-73
2023/02/13 12:07:25;;;;;;;6.45;3.50;;;;;;;18.65;42.16;103544.47;4994440;28;20032;-72
2023/02/13 12:10:02;;;;;;;7.78;3.55;;;;;;;18.63;42.28;103541.88;4994292;28;20030;-74
2023/02/13 12:12:34;;;;;;;5.93;3.60;;;;;;;18.59;42.36;103536.78;4993921;28;20034;-71
2023/02/13 12:15:13;;;;;;;6.57;3.55;;;;;;;18.64;42.18;103540.97;4994063;28;20576;-72
2023/02/13 12:17:42;;;;;;;5.95;3.70;;;;;;;18.63;41.97;103536.59;4993801;28;20030;-73
2023/02/13 12:20:16;;;;;;;6.38;3.60;;;;;;;18.61;42.14;103530.53;4993363;28;20041;-72
2023/02/13 12:23:02;;;;;;;5.45;3.13;;;;;;;18.64;42.24;103537.44;4994194;28;20390;-71